sensor_id;sensor_type;location;lat;lon;timestamp;P1;durP1;ratioP1;P2;durP2;ratioP2
44426;SDS011;30133;47.866;-4.222;2022-08-25T00:01:54;1.00;;;0.50;;
44426;SDS011;30133;47.866;-4.222;2022-08-25T00:04:31;1.40;;;0.50;;
44426;SDS011;30133;47.866;-4.222;2022-08-25T00:06:59;0.30;;;0.30;;
44426;SDS011;30133;47.866;-4.222;2022-08-25T00:09:29;0.50;;;0.40;;
44426;SDS011;30133;47.866;-4.222;2022-08-25T00:11:58;0.43;;;0.30;;
44426;SDS011;30133;47.866;-4.222;2022-08-25T00:14:26;0.50;;;0.50;;
44426;SDS011;30133;47.866;-4.222;2022-08-25T00:17:00;0.75;;;0.47;;
44426;SDS011;30133;47.866;-4.222;2022-08-25T00:19:29;0.65;;;0.40;;
44426;SDS011;30133;47.866;-4.222;2022-08-25T00:21:59;0.10;;;0.10;;
44426;SDS011;30133;47.866;-4.222;2022-08-25T00:24:26;0.70;;;0.30;;
44426;SDS011;30133;47.866;-4.222;2022-08-25T00:26:53;0.43;;;0.32;;
44426;SDS011;30133;47.866;-4.222;2022-08-25T00:29:23;0.70;;;0.35;;
44426;SDS011;30133;47.866;-4.222;2022-08-25T00:31:50;1.00;;;0.47;;
44426;SDS011;30133;47.866;-4.222;2022-08-25T00:34:20;0.40;;;0.30;;
44426;SDS011;30133;47.866;-4.222;2022-08-25T00:36:52;0.57;;;0.40;;
44426;SDS011;30133;47.866;-4.222;2022-08-25T00:39:19;0.40;;;0.40;;
44426;SDS011;30133;47.866;-4.222;2022-08-25T00:41:48;0.32;;;0.32;;
44426;SDS011;30133;47.866;-4.222;2022-08-25T00:44:17;0.50;;;0.50;;
44426;SDS011;30133;47.866;-4.222;2022-08-25T00:46:51;0.73;;;0.57;;
44426;SDS011;30133;47.866;-4.222;2022-08-25T00:49:23;0.55;;;0.47;;
44426;SDS011;30133;47.866;-4.222;2022-08-25T00:54:41;1.77;;;0.40;;
44426;SDS011;30133;47.866;-4.222;2022-08-25T00:57:22;0.77;;;0.50;;
44426;SDS011;30133;47.866;-4.222;2022-08-25T00:59:53;0.35;;;0.30;;
44426;SDS011;30133;47.866;-4.222;2022-08-25T01:02:22;0.50;;;0.50;;
44426;SDS011;30133;47.866;-4.222;2022-08-25T01:04:48;0.30;;;0.30;;
44426;SDS011;30133;47.866;-4.222;2022-08-25T01:07:18;0.35;;;0.30;;
44426;SDS011;30133;47.866;-4.222;2022-08-25T01:09:51;0.85;;;0.50;;
44426;SDS011;30133;47.866;-4.222;2022-08-25T01:12:18;0.65;;;0.43;;
44426;SDS011;30133;47.866;-4.222;2022-08-25T01:14:46;0.30;;;0.30;;
44426;SDS011;30133;47.866;-4.222;2022-08-25T01:17:14;0.60;;;0.60;;
44426;SDS011;30133;47.866;-4.222;2022-08-25T01:19:41;0.30;;;0.30;;
44426;SDS011;30133;47.866;-4.222;2022-08-25T01:22:08;0.70;;;0.43;;
44426;SDS011;30133;47.866;-4.222;2022-08-25T01:28:00;0.40;;;0.40;;
44426;SDS011;30133;47.866;-4.222;2022-08-25T01:30:27;0.45;;;0.30;;
44426;SDS011;30133;47.866;-4.222;2022-08-25T01:32:54;0.65;;;0.60;;
44426;SDS011;30133;47.866;-4.222;2022-08-25T01:35:20;0.30;;;0.22;;
44426;SDS011;30133;47.866;-4.222;2022-08-25T01:37:46;0.80;;;0.50;;
44426;SDS011;30133;47.866;-4.222;2022-08-25T01:40:13;0.50;;;0.43;;
44426;SDS011;30133;47.866;-4.222;2022-08-25T01:43:01;0.55;;;0.52;;
44426;SDS011;30133;47.866;-4.222;2022-08-25T01:45:47;0.55;;;0.40;;
44426;SDS011;30133;47.866;-4.222;2022-08-25T01:48:13;0.50;;;0.30;;
44426;SDS011;30133;47.866;-4.222;2022-08-25T01:50:44;0.50;;;0.40;;
44426;SDS011;30133;47.866;-4.222;2022-08-25T01:53:28;0.68;;;0.68;;
44426;SDS011;30133;47.866;-4.222;2022-08-25T01:55:57;0.63;;;0.30;;
44426;SDS011;30133;47.866;-4.222;2022-08-25T01:58:27;0.30;;;0.30;;
44426;SDS011;30133;47.866;-4.222;2022-08-25T02:00:59;0.50;;;0.50;;
44426;SDS011;30133;47.866;-4.222;2022-08-25T02:03:35;0.47;;;0.35;;
44426;SDS011;30133;47.866;-4.222;2022-08-25T02:06:22;0.32;;;0.32;;
44426;SDS011;30133;47.866;-4.222;2022-08-25T02:09:15;1.10;;;0.30;;
44426;SDS011;30133;47.866;-4.222;2022-08-25T02:11:43;0.40;;;0.40;;
44426;SDS011;30133;47.866;-4.222;2022-08-25T02:14:11;1.00;;;0.45;;
44426;SDS011;30133;47.866;-4.222;2022-08-25T02:16:39;0.40;;;0.40;;
44426;SDS011;30133;47.866;-4.222;2022-08-25T02:19:13;0.65;;;0.50;;
44426;SDS011;30133;47.866;-4.222;2022-08-25T02:21:40;0.60;;;0.50;;
44426;SDS011;30133;47.866;-4.222;2022-08-25T02:24:07;0.50;;;0.50;;
44426;SDS011;30133;47.866;-4.222;2022-08-25T02:26:34;1.10;;;0.70;;
44426;SDS011;30133;47.866;-4.222;2022-08-25T02:29:01;0.47;;;0.40;;
44426;SDS011;30133;47.866;-4.222;2022-08-25T02:31:28;0.28;;;0.28;;
44426;SDS011;30133;47.866;-4.222;2022-08-25T02:33:55;0.25;;;0.25;;
44426;SDS011;30133;47.866;-4.222;2022-08-25T02:36:22;0.75;;;0.50;;
44426;SDS011;30133;47.866;-4.222;2022-08-25T02:38:50;1.58;;;1.13;;
44426;SDS011;30133;47.866;-4.222;2022-08-25T02:41:20;0.50;;;0.50;;
44426;SDS011;30133;47.866;-4.222;2022-08-25T02:43:48;1.02;;;0.50;;
44426;SDS011;30133;47.866;-4.222;2022-08-25T02:46:18;1.55;;;0.63;;
44426;SDS011;30133;47.866;-4.222;2022-08-25T02:48:46;1.35;;;0.52;;
44426;SDS011;30133;47.866;-4.222;2022-08-25T02:51:12;0.75;;;0.50;;
44426;SDS011;30133;47.866;-4.222;2022-08-25T02:53:39;0.40;;;0.40;;
44426;SDS011;30133;47.866;-4.222;2022-08-25T02:56:08;1.02;;;0.45;;
44426;SDS011;30133;47.866;-4.222;2022-08-25T02:58:36;0.70;;;0.40;;
44426;SDS011;30133;47.866;-4.222;2022-08-25T03:01:06;0.85;;;0.85;;
44426;SDS011;30133;47.866;-4.222;2022-08-25T03:03:38;0.55;;;0.47;;
44426;SDS011;30133;47.866;-4.222;2022-08-25T03:06:13;1.42;;;0.63;;
44426;SDS011;30133;47.866;-4.222;2022-08-25T03:08:43;0.50;;;0.50;;
44426;SDS011;30133;47.866;-4.222;2022-08-25T03:11:09;0.40;;;0.40;;
44426;SDS011;30133;47.866;-4.222;2022-08-25T03:13:36;3.25;;;1.23;;
44426;SDS011;30133;47.866;-4.222;2022-08-25T03:16:03;0.52;;;0.40;;
44426;SDS011;30133;47.866;-4.222;2022-08-25T03:18:31;0.50;;;0.43;;
44426;SDS011;30133;47.866;-4.222;2022-08-25T03:20:57;0.68;;;0.60;;
44426;SDS011;30133;47.866;-4.222;2022-08-25T03:23:23;0.40;;;0.30;;
44426;SDS011;30133;47.866;-4.222;2022-08-25T03:25:49;0.90;;;0.60;;
44426;SDS011;30133;47.866;-4.222;2022-08-25T03:28:37;0.47;;;0.47;;
44426;SDS011;30133;47.866;-4.222;2022-08-25T03:31:03;0.70;;;0.40;;
44426;SDS011;30133;47.866;-4.222;2022-08-25T03:33:29;1.15;;;0.40;;
44426;SDS011;30133;47.866;-4.222;2022-08-25T03:35:56;0.57;;;0.47;;
44426;SDS011;30133;47.866;-4.222;2022-08-25T03:38:24;1.80;;;0.60;;
44426;SDS011;30133;47.866;-4.222;2022-08-25T03:40:51;1.00;;;0.90;;
44426;SDS011;30133;47.866;-4.222;2022-08-25T03:43:18;0.70;;;0.57;;
44426;SDS011;30133;47.866;-4.222;2022-08-25T03:45:45;1.20;;;0.80;;
44426;SDS011;30133;47.866;-4.222;2022-08-25T03:48:12;0.70;;;0.65;;
44426;SDS011;30133;47.866;-4.222;2022-08-25T03:50:47;1.25;;;0.85;;
44426;SDS011;30133;47.866;-4.222;2022-08-25T03:53:19;0.60;;;0.50;;
44426;SDS011;30133;47.866;-4.222;2022-08-25T03:55:46;0.63;;;0.63;;
44426;SDS011;30133;47.866;-4.222;2022-08-25T03:58:12;1.00;;;0.60;;
44426;SDS011;30133;47.866;-4.222;2022-08-25T04:00:41;0.80;;;0.50;;
44426;SDS011;30133;47.866;-4.222;2022-08-25T04:03:10;0.60;;;0.60;;
44426;SDS011;30133;47.866;-4.222;2022-08-25T04:05:36;1.08;;;0.50;;
44426;SDS011;30133;47.866;-4.222;2022-08-25T04:08:02;0.50;;;0.47;;
44426;SDS011;30133;47.866;-4.222;2022-08-25T04:10:28;0.47;;;0.40;;
44426;SDS011;30133;47.866;-4.222;2022-08-25T04:12:55;0.43;;;0.32;;
44426;SDS011;30133;47.866;-4.222;2022-08-25T04:15:22;0.98;;;0.60;;
44426;SDS011;30133;47.866;-4.222;2022-08-25T04:17:49;2.97;;;0.50;;
44426;SDS011;30133;47.866;-4.222;2022-08-25T04:20:15;0.70;;;0.68;;
44426;SDS011;30133;47.866;-4.222;2022-08-25T04:22:42;0.82;;;0.40;;
44426;SDS011;30133;47.866;-4.222;2022-08-25T04:25:08;0.77;;;0.60;;
44426;SDS011;30133;47.866;-4.222;2022-08-25T04:27:34;0.90;;;0.50;;
44426;SDS011;30133;47.866;-4.222;2022-08-25T04:30:01;0.50;;;0.50;;
44426;SDS011;30133;47.866;-4.222;2022-08-25T04:32:30;0.30;;;0.30;;
44426;SDS011;30133;47.866;-4.222;2022-08-25T04:34:57;0.70;;;0.50;;
44426;SDS011;30133;47.866;-4.222;2022-08-25T04:37:23;0.65;;;0.57;;
44426;SDS011;30133;47.866;-4.222;2022-08-25T04:39:49;0.60;;;0.50;;
44426;SDS011;30133;47.866;-4.222;2022-08-25T04:42:15;0.47;;;0.43;;
44426;SDS011;30133;47.866;-4.222;2022-08-25T04:44:41;0.28;;;0.28;;
44426;SDS011;30133;47.866;-4.222;2022-08-25T04:47:07;0.60;;;0.50;;
44426;SDS011;30133;47.866;-4.222;2022-08-25T04:49:35;1.05;;;0.60;;
44426;SDS011;30133;47.866;-4.222;2022-08-25T04:52:04;0.82;;;0.50;;
44426;SDS011;30133;47.866;-4.222;2022-08-25T04:54:31;0.57;;;0.25;;
44426;SDS011;30133;47.866;-4.222;2022-08-25T04:56:57;0.45;;;0.45;;
44426;SDS011;30133;47.866;-4.222;2022-08-25T04:59:23;0.52;;;0.50;;
44426;SDS011;30133;47.866;-4.222;2022-08-25T05:01:51;0.60;;;0.50;;
44426;SDS011;30133;47.866;-4.222;2022-08-25T05:04:18;0.68;;;0.43;;
44426;SDS011;30133;47.866;-4.222;2022-08-25T05:06:47;1.05;;;0.50;;
44426;SDS011;30133;47.866;-4.222;2022-08-25T05:09:13;0.38;;;0.38;;
44426;SDS011;30133;47.866;-4.222;2022-08-25T05:11:39;0.50;;;0.50;;
44426;SDS011;30133;47.866;-4.222;2022-08-25T05:14:06;0.40;;;0.40;;
44426;SDS011;30133;47.866;-4.222;2022-08-25T05:16:36;1.17;;;0.50;;
44426;SDS011;30133;47.866;-4.222;2022-08-25T05:19:03;1.02;;;0.50;;
44426;SDS011;30133;47.866;-4.222;2022-08-25T05:21:29;1.33;;;0.57;;
44426;SDS011;30133;47.866;-4.222;2022-08-25T05:23:58;0.75;;;0.50;;
44426;SDS011;30133;47.866;-4.222;2022-08-25T05:26:26;0.43;;;0.43;;
44426;SDS011;30133;47.866;-4.222;2022-08-25T05:28:55;0.45;;;0.43;;
44426;SDS011;30133;47.866;-4.222;2022-08-25T05:31:22;0.90;;;0.43;;
44426;SDS011;30133;47.866;-4.222;2022-08-25T05:33:50;1.10;;;0.43;;
44426;SDS011;30133;47.866;-4.222;2022-08-25T05:36:18;0.65;;;0.60;;
44426;SDS011;30133;47.866;-4.222;2022-08-25T05:38:45;0.75;;;0.50;;
44426;SDS011;30133;47.866;-4.222;2022-08-25T05:41:13;0.43;;;0.40;;
44426;SDS011;30133;47.866;-4.222;2022-08-25T05:43:44;0.63;;;0.60;;
44426;SDS011;30133;47.866;-4.222;2022-08-25T05:46:13;0.82;;;0.45;;
44426;SDS011;30133;47.866;-4.222;2022-08-25T05:48:41;0.50;;;0.50;;
44426;SDS011;30133;47.866;-4.222;2022-08-25T05:51:10;1.10;;;0.50;;
44426;SDS011;30133;47.866;-4.222;2022-08-25T05:53:44;0.93;;;0.60;;
44426;SDS011;30133;47.866;-4.222;2022-08-25T05:56:14;0.40;;;0.40;;
44426;SDS011;30133;47.866;-4.222;2022-08-25T05:58:43;0.50;;;0.50;;
44426;SDS011;30133;47.866;-4.222;2022-08-25T06:01:18;0.55;;;0.52;;
44426;SDS011;30133;47.866;-4.222;2022-08-25T06:04:07;0.50;;;0.50;;
44426;SDS011;30133;47.866;-4.222;2022-08-25T06:06:33;0.63;;;0.50;;
44426;SDS011;30133;47.866;-4.222;2022-08-25T06:09:00;0.40;;;0.40;;
44426;SDS011;30133;47.866;-4.222;2022-08-25T06:11:29;1.20;;;0.35;;
44426;SDS011;30133;47.866;-4.222;2022-08-25T06:13:55;0.45;;;0.45;;
44426;SDS011;30133;47.866;-4.222;2022-08-25T06:16:21;0.47;;;0.45;;
44426;SDS011;30133;47.866;-4.222;2022-08-25T06:18:47;1.15;;;0.63;;
44426;SDS011;30133;47.866;-4.222;2022-08-25T06:21:14;0.40;;;0.40;;
44426;SDS011;30133;47.866;-4.222;2022-08-25T06:23:42;0.47;;;0.43;;
44426;SDS011;30133;47.866;-4.222;2022-08-25T06:26:09;0.70;;;0.50;;
44426;SDS011;30133;47.866;-4.222;2022-08-25T06:28:36;0.75;;;0.43;;
44426;SDS011;30133;47.866;-4.222;2022-08-25T06:31:02;0.73;;;0.60;;
44426;SDS011;30133;47.866;-4.222;2022-08-25T06:33:29;1.20;;;0.60;;
44426;SDS011;30133;47.866;-4.222;2022-08-25T06:35:55;0.95;;;0.70;;
44426;SDS011;30133;47.866;-4.222;2022-08-25T06:38:22;1.45;;;0.55;;
44426;SDS011;30133;47.866;-4.222;2022-08-25T06:40:49;1.00;;;0.50;;
44426;SDS011;30133;47.866;-4.222;2022-08-25T06:43:21;1.15;;;0.40;;
44426;SDS011;30133;47.866;-4.222;2022-08-25T06:45:48;0.75;;;0.60;;
44426;SDS011;30133;47.866;-4.222;2022-08-25T06:48:16;0.68;;;0.60;;
44426;SDS011;30133;47.866;-4.222;2022-08-25T06:50:42;0.57;;;0.40;;
44426;SDS011;30133;47.866;-4.222;2022-08-25T06:53:09;0.32;;;0.32;;
44426;SDS011;30133;47.866;-4.222;2022-08-25T06:55:36;0.98;;;0.70;;
44426;SDS011;30133;47.866;-4.222;2022-08-25T06:58:02;0.40;;;0.40;;
44426;SDS011;30133;47.866;-4.222;2022-08-25T07:00:29;0.63;;;0.63;;
44426;SDS011;30133;47.866;-4.222;2022-08-25T07:02:57;1.20;;;0.85;;
44426;SDS011;30133;47.866;-4.222;2022-08-25T07:05:25;1.83;;;0.60;;
44426;SDS011;30133;47.866;-4.222;2022-08-25T07:07:54;1.65;;;0.60;;
44426;SDS011;30133;47.866;-4.222;2022-08-25T07:10:21;1.05;;;0.90;;
44426;SDS011;30133;47.866;-4.222;2022-08-25T07:12:47;0.90;;;0.52;;
44426;SDS011;30133;47.866;-4.222;2022-08-25T07:15:14;0.93;;;0.50;;
44426;SDS011;30133;47.866;-4.222;2022-08-25T07:17:41;0.73;;;0.50;;
44426;SDS011;30133;47.866;-4.222;2022-08-25T07:20:07;0.80;;;0.52;;
44426;SDS011;30133;47.866;-4.222;2022-08-25T07:22:33;0.65;;;0.60;;
44426;SDS011;30133;47.866;-4.222;2022-08-25T07:24:59;0.57;;;0.50;;
44426;SDS011;30133;47.866;-4.222;2022-08-25T07:27:25;2.58;;;0.70;;
44426;SDS011;30133;47.866;-4.222;2022-08-25T07:29:51;1.92;;;0.70;;
44426;SDS011;30133;47.866;-4.222;2022-08-25T07:32:18;0.77;;;0.50;;
44426;SDS011;30133;47.866;-4.222;2022-08-25T07:34:44;0.85;;;0.50;;
44426;SDS011;30133;47.866;-4.222;2022-08-25T07:37:28;1.80;;;0.63;;
44426;SDS011;30133;47.866;-4.222;2022-08-25T07:39:55;0.80;;;0.60;;
44426;SDS011;30133;47.866;-4.222;2022-08-25T07:42:28;0.80;;;0.35;;
44426;SDS011;30133;47.866;-4.222;2022-08-25T07:44:55;2.60;;;1.00;;
44426;SDS011;30133;47.866;-4.222;2022-08-25T07:47:21;4.03;;;0.80;;
44426;SDS011;30133;47.866;-4.222;2022-08-25T07:49:47;0.98;;;0.60;;
44426;SDS011;30133;47.866;-4.222;2022-08-25T07:52:15;1.30;;;0.68;;
44426;SDS011;30133;47.866;-4.222;2022-08-25T07:54:41;0.95;;;0.68;;
44426;SDS011;30133;47.866;-4.222;2022-08-25T07:57:07;1.73;;;0.73;;
44426;SDS011;30133;47.866;-4.222;2022-08-25T07:59:55;1.33;;;0.45;;
44426;SDS011;30133;47.866;-4.222;2022-08-25T08:02:23;0.60;;;0.60;;
44426;SDS011;30133;47.866;-4.222;2022-08-25T08:04:50;0.90;;;0.77;;
44426;SDS011;30133;47.866;-4.222;2022-08-25T08:07:17;0.70;;;0.60;;
44426;SDS011;30133;47.866;-4.222;2022-08-25T08:09:46;1.85;;;0.68;;
44426;SDS011;30133;47.866;-4.222;2022-08-25T08:12:13;1.38;;;0.57;;
44426;SDS011;30133;47.866;-4.222;2022-08-25T08:14:40;3.33;;;1.45;;
44426;SDS011;30133;47.866;-4.222;2022-08-25T08:17:08;1.30;;;0.63;;
44426;SDS011;30133;47.866;-4.222;2022-08-25T08:19:36;2.13;;;0.60;;
44426;SDS011;30133;47.866;-4.222;2022-08-25T08:22:03;5.22;;;0.63;;
44426;SDS011;30133;47.866;-4.222;2022-08-25T08:24:32;14.23;;;0.80;;
44426;SDS011;30133;47.866;-4.222;2022-08-25T08:27:05;1.38;;;0.82;;
44426;SDS011;30133;47.866;-4.222;2022-08-25T08:29:34;3.88;;;0.70;;
44426;SDS011;30133;47.866;-4.222;2022-08-25T08:32:03;3.17;;;1.00;;
44426;SDS011;30133;47.866;-4.222;2022-08-25T08:34:35;7.47;;;1.67;;
44426;SDS011;30133;47.866;-4.222;2022-08-25T08:37:02;3.78;;;0.93;;
44426;SDS011;30133;47.866;-4.222;2022-08-25T08:39:29;8.05;;;1.48;;
44426;SDS011;30133;47.866;-4.222;2022-08-25T08:42:00;8.43;;;1.42;;
44426;SDS011;30133;47.866;-4.222;2022-08-25T08:47:42;8.07;;;1.58;;
44426;SDS011;30133;47.866;-4.222;2022-08-25T08:53:44;16.17;;;2.42;;
44426;SDS011;30133;47.866;-4.222;2022-08-25T08:56:31;4.28;;;1.55;;
44426;SDS011;30133;47.866;-4.222;2022-08-25T08:59:04;10.10;;;1.35;;
44426;SDS011;30133;47.866;-4.222;2022-08-25T09:01:57;13.63;;;1.60;;
44426;SDS011;30133;47.866;-4.222;2022-08-25T09:04:32;5.10;;;1.75;;
44426;SDS011;30133;47.866;-4.222;2022-08-25T09:07:34;2.92;;;1.05;;
44426;SDS011;30133;47.866;-4.222;2022-08-25T09:10:09;2.90;;;1.02;;
44426;SDS011;30133;47.866;-4.222;2022-08-25T09:12:36;2.17;;;1.17;;
44426;SDS011;30133;47.866;-4.222;2022-08-25T09:21:10;6.80;;;1.50;;
44426;SDS011;30133;47.866;-4.222;2022-08-25T09:30:05;19.85;;;2.03;;
44426;SDS011;30133;47.866;-4.222;2022-08-25T09:32:54;10.10;;;1.08;;
44426;SDS011;30133;47.866;-4.222;2022-08-25T09:35:29;3.05;;;0.90;;
44426;SDS011;30133;47.866;-4.222;2022-08-25T09:40:33;9.02;;;1.55;;
44426;SDS011;30133;47.866;-4.222;2022-08-25T09:43:19;11.13;;;1.30;;
44426;SDS011;30133;47.866;-4.222;2022-08-25T09:48:48;4.65;;;1.35;;
44426;SDS011;30133;47.866;-4.222;2022-08-25T09:51:30;5.65;;;1.52;;
44426;SDS011;30133;47.866;-4.222;2022-08-25T09:54:02;12.15;;;1.55;;
44426;SDS011;30133;47.866;-4.222;2022-08-25T09:56:50;8.18;;;1.23;;
44426;SDS011;30133;47.866;-4.222;2022-08-25T09:59:28;11.05;;;1.40;;
44426;SDS011;30133;47.866;-4.222;2022-08-25T10:02:05;4.85;;;1.83;;
44426;SDS011;30133;47.866;-4.222;2022-08-25T10:04:53;3.03;;;0.90;;
44426;SDS011;30133;47.866;-4.222;2022-08-25T10:07:23;7.03;;;1.35;;
44426;SDS011;30133;47.866;-4.222;2022-08-25T10:10:03;11.23;;;1.80;;
44426;SDS011;30133;47.866;-4.222;2022-08-25T10:12:45;6.18;;;0.75;;
44426;SDS011;30133;47.866;-4.222;2022-08-25T10:21:11;2.03;;;0.90;;
44426;SDS011;30133;47.866;-4.222;2022-08-25T10:23:46;5.90;;;1.60;;
44426;SDS011;30133;47.866;-4.222;2022-08-25T10:26:40;2.50;;;0.90;;
44426;SDS011;30133;47.866;-4.222;2022-08-25T10:31:55;5.40;;;1.25;;
44426;SDS011;30133;47.866;-4.222;2022-08-25T10:38:01;3.67;;;1.00;;
44426;SDS011;30133;47.866;-4.222;2022-08-25T10:43:52;2.90;;;0.85;;
44426;SDS011;30133;47.866;-4.222;2022-08-25T11:04:37;3.50;;;1.60;;
44426;SDS011;30133;47.866;-4.222;2022-08-25T11:09:53;1.15;;;0.82;;
44426;SDS011;30133;47.866;-4.222;2022-08-25T11:12:33;3.75;;;0.90;;
44426;SDS011;30133;47.866;-4.222;2022-08-25T11:15:18;2.08;;;0.70;;
44426;SDS011;30133;47.866;-4.222;2022-08-25T11:20:39;3.03;;;1.00;;
44426;SDS011;30133;47.866;-4.222;2022-08-25T11:23:37;4.72;;;1.13;;
44426;SDS011;30133;47.866;-4.222;2022-08-25T11:26:31;1.20;;;0.70;;
44426;SDS011;30133;47.866;-4.222;2022-08-25T11:31:38;1.48;;;0.82;;
44426;SDS011;30133;47.866;-4.222;2022-08-25T11:34:14;5.20;;;1.05;;
44426;SDS011;30133;47.866;-4.222;2022-08-25T11:36:57;2.58;;;1.27;;
44426;SDS011;30133;47.866;-4.222;2022-08-25T11:39:36;0.82;;;0.60;;
44426;SDS011;30133;47.866;-4.222;2022-08-25T11:45:24;2.70;;;0.80;;
44426;SDS011;30133;47.866;-4.222;2022-08-25T11:48:24;2.15;;;1.08;;
44426;SDS011;30133;47.866;-4.222;2022-08-25T11:51:39;2.08;;;0.98;;
44426;SDS011;30133;47.866;-4.222;2022-08-25T11:57:09;1.15;;;0.60;;
44426;SDS011;30133;47.866;-4.222;2022-08-25T12:13:47;2.58;;;0.70;;
44426;SDS011;30133;47.866;-4.222;2022-08-25T12:21:51;1.05;;;0.65;;
44426;SDS011;30133;47.866;-4.222;2022-08-25T12:24:46;1.83;;;0.77;;
44426;SDS011;30133;47.866;-4.222;2022-08-25T12:32:46;1.05;;;0.50;;
44426;SDS011;30133;47.866;-4.222;2022-08-25T12:38:28;3.03;;;0.80;;
44426;SDS011;30133;47.866;-4.222;2022-08-25T12:41:08;2.35;;;0.63;;
44426;SDS011;30133;47.866;-4.222;2022-08-25T12:43:40;2.30;;;0.50;;
44426;SDS011;30133;47.866;-4.222;2022-08-25T12:49:00;3.70;;;0.95;;
44426;SDS011;30133;47.866;-4.222;2022-08-25T12:51:59;3.75;;;0.57;;
44426;SDS011;30133;47.866;-4.222;2022-08-25T13:00:20;2.13;;;0.50;;
44426;SDS011;30133;47.866;-4.222;2022-08-25T13:08:54;1.55;;;0.60;;
44426;SDS011;30133;47.866;-4.222;2022-08-25T13:14:51;1.88;;;0.60;;
44426;SDS011;30133;47.866;-4.222;2022-08-25T13:17:26;1.50;;;1.05;;
44426;SDS011;30133;47.866;-4.222;2022-08-25T13:20:15;2.17;;;0.70;;
44426;SDS011;30133;47.866;-4.222;2022-08-25T13:22:50;3.45;;;1.27;;
44426;SDS011;30133;47.866;-4.222;2022-08-25T13:25:23;1.67;;;0.90;;
44426;SDS011;30133;47.866;-4.222;2022-08-25T13:27:54;4.90;;;0.90;;
44426;SDS011;30133;47.866;-4.222;2022-08-25T13:30:26;3.10;;;1.10;;
44426;SDS011;30133;47.866;-4.222;2022-08-25T13:32:56;3.00;;;0.60;;
44426;SDS011;30133;47.866;-4.222;2022-08-25T13:35:29;2.60;;;0.60;;
44426;SDS011;30133;47.866;-4.222;2022-08-25T13:38:11;3.22;;;0.80;;
44426;SDS011;30133;47.866;-4.222;2022-08-25T13:40:41;3.30;;;1.20;;
44426;SDS011;30133;47.866;-4.222;2022-08-25T13:43:10;1.23;;;0.60;;
44426;SDS011;30133;47.866;-4.222;2022-08-25T13:45:43;7.55;;;1.27;;
44426;SDS011;30133;47.866;-4.222;2022-08-25T13:48:13;12.30;;;1.02;;
44426;SDS011;30133;47.866;-4.222;2022-08-25T13:53:59;4.55;;;0.95;;
44426;SDS011;30133;47.866;-4.222;2022-08-25T13:56:32;3.50;;;1.00;;
44426;SDS011;30133;47.866;-4.222;2022-08-25T13:59:09;10.10;;;1.10;;
44426;SDS011;30133;47.866;-4.222;2022-08-25T14:01:52;4.07;;;0.90;;
44426;SDS011;30133;47.866;-4.222;2022-08-25T14:09:57;4.88;;;0.80;;
44426;SDS011;30133;47.866;-4.222;2022-08-25T14:20:42;3.00;;;0.73;;
44426;SDS011;30133;47.866;-4.222;2022-08-25T14:23:16;1.38;;;0.70;;
44426;SDS011;30133;47.866;-4.222;2022-08-25T14:25:47;2.75;;;0.77;;
44426;SDS011;30133;47.866;-4.222;2022-08-25T14:28:17;7.68;;;1.00;;
44426;SDS011;30133;47.866;-4.222;2022-08-25T14:30:50;2.03;;;0.85;;
44426;SDS011;30133;47.866;-4.222;2022-08-25T14:33:23;4.05;;;1.20;;
44426;SDS011;30133;47.866;-4.222;2022-08-25T14:35:58;2.95;;;0.90;;
44426;SDS011;30133;47.866;-4.222;2022-08-25T14:38:27;2.10;;;0.80;;
44426;SDS011;30133;47.866;-4.222;2022-08-25T14:40:53;1.40;;;0.60;;
44426;SDS011;30133;47.866;-4.222;2022-08-25T14:43:21;5.07;;;0.85;;
44426;SDS011;30133;47.866;-4.222;2022-08-25T14:45:48;3.22;;;0.82;;
44426;SDS011;30133;47.866;-4.222;2022-08-25T14:48:25;9.32;;;1.13;;
44426;SDS011;30133;47.866;-4.222;2022-08-25T14:51:18;1.85;;;0.88;;
44426;SDS011;30133;47.866;-4.222;2022-08-25T14:53:46;3.38;;;0.95;;
44426;SDS011;30133;47.866;-4.222;2022-08-25T14:56:14;1.75;;;0.70;;
44426;SDS011;30133;47.866;-4.222;2022-08-25T14:58:41;1.08;;;0.63;;
44426;SDS011;30133;47.866;-4.222;2022-08-25T15:01:12;2.63;;;0.68;;
44426;SDS011;30133;47.866;-4.222;2022-08-25T15:03:43;2.28;;;0.88;;
44426;SDS011;30133;47.866;-4.222;2022-08-25T15:06:13;1.65;;;0.85;;
44426;SDS011;30133;47.866;-4.222;2022-08-25T15:08:42;3.30;;;1.20;;
44426;SDS011;30133;47.866;-4.222;2022-08-25T15:11:28;6.20;;;0.93;;
44426;SDS011;30133;47.866;-4.222;2022-08-25T15:13:56;3.22;;;0.90;;
44426;SDS011;30133;47.866;-4.222;2022-08-25T15:16:33;2.85;;;0.77;;
44426;SDS011;30133;47.866;-4.222;2022-08-25T15:19:05;3.03;;;0.80;;
44426;SDS011;30133;47.866;-4.222;2022-08-25T15:21:38;4.90;;;0.75;;
44426;SDS011;30133;47.866;-4.222;2022-08-25T15:24:05;6.78;;;1.20;;
44426;SDS011;30133;47.866;-4.222;2022-08-25T15:26:45;2.25;;;1.10;;
44426;SDS011;30133;47.866;-4.222;2022-08-25T15:29:17;7.47;;;1.25;;
44426;SDS011;30133;47.866;-4.222;2022-08-25T15:31:45;8.90;;;0.98;;
44426;SDS011;30133;47.866;-4.222;2022-08-25T15:34:13;1.42;;;0.57;;
44426;SDS011;30133;47.866;-4.222;2022-08-25T15:36:41;3.10;;;0.98;;
44426;SDS011;30133;47.866;-4.222;2022-08-25T15:39:08;4.57;;;1.60;;
44426;SDS011;30133;47.866;-4.222;2022-08-25T15:41:36;7.53;;;0.90;;
44426;SDS011;30133;47.866;-4.222;2022-08-25T15:44:03;6.78;;;1.35;;
44426;SDS011;30133;47.866;-4.222;2022-08-25T15:46:31;2.58;;;0.85;;
44426;SDS011;30133;47.866;-4.222;2022-08-25T15:48:59;6.47;;;1.10;;
44426;SDS011;30133;47.866;-4.222;2022-08-25T15:51:26;4.47;;;0.80;;
44426;SDS011;30133;47.866;-4.222;2022-08-25T15:53:54;4.53;;;0.98;;
44426;SDS011;30133;47.866;-4.222;2022-08-25T15:56:21;3.05;;;0.85;;
44426;SDS011;30133;47.866;-4.222;2022-08-25T15:58:49;4.75;;;0.88;;
44426;SDS011;30133;47.866;-4.222;2022-08-25T16:01:21;1.58;;;0.73;;
44426;SDS011;30133;47.866;-4.222;2022-08-25T16:03:51;6.63;;;0.60;;
44426;SDS011;30133;47.866;-4.222;2022-08-25T16:06:18;8.23;;;1.00;;
44426;SDS011;30133;47.866;-4.222;2022-08-25T16:08:46;4.25;;;1.08;;
44426;SDS011;30133;47.866;-4.222;2022-08-25T16:11:20;4.38;;;1.20;;
44426;SDS011;30133;47.866;-4.222;2022-08-25T16:13:51;2.20;;;0.90;;
44426;SDS011;30133;47.866;-4.222;2022-08-25T16:16:20;2.47;;;1.05;;
44426;SDS011;30133;47.866;-4.222;2022-08-25T16:18:48;4.43;;;0.95;;
44426;SDS011;30133;47.866;-4.222;2022-08-25T16:21:16;1.90;;;0.90;;
44426;SDS011;30133;47.866;-4.222;2022-08-25T16:23:48;3.63;;;1.05;;
44426;SDS011;30133;47.866;-4.222;2022-08-25T16:26:17;2.47;;;1.08;;
44426;SDS011;30133;47.866;-4.222;2022-08-25T16:28:43;1.50;;;0.95;;
44426;SDS011;30133;47.866;-4.222;2022-08-25T16:31:10;6.43;;;1.10;;
44426;SDS011;30133;47.866;-4.222;2022-08-25T16:33:38;2.65;;;0.85;;
44426;SDS011;30133;47.866;-4.222;2022-08-25T16:36:05;6.45;;;1.15;;
44426;SDS011;30133;47.866;-4.222;2022-08-25T16:38:45;4.22;;;0.85;;
44426;SDS011;30133;47.866;-4.222;2022-08-25T16:41:13;3.95;;;1.30;;
44426;SDS011;30133;47.866;-4.222;2022-08-25T16:43:48;4.38;;;1.17;;
44426;SDS011;30133;47.866;-4.222;2022-08-25T16:46:20;4.07;;;1.35;;
44426;SDS011;30133;47.866;-4.222;2022-08-25T16:48:46;4.45;;;1.13;;
44426;SDS011;30133;47.866;-4.222;2022-08-25T16:51:17;5.45;;;1.17;;
44426;SDS011;30133;47.866;-4.222;2022-08-25T16:53:46;13.50;;;1.40;;
44426;SDS011;30133;47.866;-4.222;2022-08-25T16:56:32;7.70;;;1.15;;
44426;SDS011;30133;47.866;-4.222;2022-08-25T16:59:01;7.32;;;1.45;;
44426;SDS011;30133;47.866;-4.222;2022-08-25T17:01:29;5.70;;;2.15;;
44426;SDS011;30133;47.866;-4.222;2022-08-25T17:03:58;21.17;;;1.48;;
44426;SDS011;30133;47.866;-4.222;2022-08-25T17:06:29;6.70;;;1.15;;
44426;SDS011;30133;47.866;-4.222;2022-08-25T17:09:00;4.72;;;1.25;;
44426;SDS011;30133;47.866;-4.222;2022-08-25T17:11:29;7.78;;;1.10;;
44426;SDS011;30133;47.866;-4.222;2022-08-25T17:14:01;26.80;;;2.20;;
44426;SDS011;30133;47.866;-4.222;2022-08-25T17:16:33;4.57;;;1.25;;
44426;SDS011;30133;47.866;-4.222;2022-08-25T17:19:03;9.77;;;1.67;;